createdAt,value
2023-05-05T00:00:00.471Z,1172.00
2023-05-05T00:01:00.412Z,1169.00
2023-05-05T00:02:00.488Z,1166.00
2023-05-05T00:03:00.540Z,1164.00
2023-05-05T00:04:00.553Z,1163.00
2023-05-05T00:05:00.452Z,1165.00
2023-05-05T00:06:00.405Z,1162.00
2023-05-05T00:07:00.394Z,1164.00
2023-05-05T00:08:00.372Z,1167.00
2023-05-05T00:09:00.433Z,1168.00
2023-05-05T00:10:00.390Z,1167.00
2023-05-05T00:11:00.376Z,1169.00
2023-05-05T00:12:00.365Z,1170.00
2023-05-05T00:13:00.352Z,1168.00
2023-05-05T00:14:00.346Z,1164.00
2023-05-05T00:15:00.315Z,1164.00
2023-05-05T00:16:00.324Z,1165.00
2023-05-05T00:17:00.397Z,1165.00
2023-05-05T00:18:00.373Z,1167.00
2023-05-05T00:19:00.303Z,1165.00
2023-05-05T00:20:00.320Z,1164.00
2023-05-05T00:21:00.283Z,1166.00
2023-05-05T00:22:00.260Z,1163.00
2023-05-05T00:23:00.530Z,1162.00
2023-05-05T00:24:00.301Z,1160.00
2023-05-05T00:25:00.280Z,1163.00
2023-05-05T00:26:00.252Z,1162.00
2023-05-05T00:27:00.297Z,1163.00
2023-05-05T00:28:00.255Z,1162.00
2023-05-05T00:29:00.252Z,1160.00
2023-05-05T00:30:00.269Z,1157.00
2023-05-05T00:31:00.359Z,1158.00
2023-05-05T00:32:00.243Z,1154.00
2023-05-05T00:33:00.316Z,1153.00
2023-05-05T00:34:00.217Z,1151.00
2023-05-05T00:35:00.197Z,1149.00
2023-05-05T00:36:00.184Z,1150.00
2023-05-05T00:37:00.227Z,1152.00
2023-05-05T00:38:00.170Z,1151.00
2023-05-05T00:39:00.185Z,1149.00
2023-05-05T00:40:00.200Z,1151.00
2023-05-05T00:41:00.168Z,1152.00
2023-05-05T00:42:00.185Z,1154.00
2023-05-05T00:43:00.250Z,1155.00
2023-05-05T00:44:00.241Z,1156.00
2023-05-05T00:45:00.296Z,1155.00
2023-05-05T00:46:00.362Z,1153.00
2023-05-05T00:47:00.381Z,1153.00
2023-05-05T00:48:00.463Z,1151.00
2023-05-05T00:49:00.484Z,1151.00
2023-05-05T00:50:00.498Z,1152.00
2023-05-05T00:51:00.543Z,1152.00
2023-05-05T00:52:00.606Z,1151.00
2023-05-05T00:53:00.626Z,1153.00
2023-05-05T00:54:00.661Z,1153.00
2023-05-05T00:55:00.713Z,1152.00
2023-05-05T00:56:00.765Z,1152.00
2023-05-05T00:57:00.811Z,1151.00
2023-05-05T00:58:00.840Z,1148.00
2023-05-05T00:59:00.916Z,1148.00
2023-05-05T01:00:00.929Z,1147.00
2023-05-05T01:01:00.988Z,1150.00
2023-05-05T01:02:01.053Z,1150.00
2023-05-05T01:03:01.150Z,1149.00
2023-05-05T01:04:01.150Z,1147.00
2023-05-05T01:05:01.143Z,1144.00
2023-05-05T01:06:01.202Z,1144.00
2023-05-05T01:07:01.232Z,1141.00
2023-05-05T01:08:01.352Z,1139.00
2023-05-05T01:09:01.364Z,1136.00
2023-05-05T01:10:15.639Z,1138.00
2023-05-05T01:11:02.469Z,1140.00
2023-05-05T01:12:01.376Z,1143.00
2023-05-05T01:13:01.428Z,1144.00
2023-05-05T01:14:01.362Z,1146.00
2023-05-05T01:15:01.382Z,1144.00
2023-05-05T01:16:01.370Z,1144.00
2023-05-05T01:17:01.362Z,1141.00
2023-05-05T01:18:01.347Z,1137.00
2023-05-05T01:19:01.319Z,1138.00
2023-05-05T01:20:01.325Z,1139.00
2023-05-05T01:21:01.378Z,1139.00
2023-05-05T01:22:01.361Z,1140.00
2023-05-05T01:23:01.410Z,1141.00
2023-05-05T01:24:01.492Z,1142.00
2023-05-05T01:25:01.489Z,1143.00
2023-05-05T01:26:01.554Z,1142.00
2023-05-05T01:27:01.619Z,1140.00
2023-05-05T01:28:01.657Z,1138.00
2023-05-05T01:29:01.708Z,1137.00
2023-05-05T01:30:01.723Z,1138.00
2023-05-05T01:31:01.773Z,1136.00
2023-05-05T01:32:01.859Z,1138.00
2023-05-05T01:33:01.851Z,1139.00
2023-05-05T01:34:01.909Z,1137.00
2023-05-05T01:35:01.989Z,1136.00
2023-05-05T01:36:01.991Z,1134.00
2023-05-05T01:37:02.054Z,1132.00
2023-05-05T01:38:02.099Z,1133.00
2023-05-05T01:39:02.120Z,1134.00
2023-05-05T01:40:02.214Z,1133.00
2023-05-05T01:41:02.250Z,1133.00
2023-05-05T01:42:02.292Z,1131.00
2023-05-05T01:43:02.322Z,1130.00
2023-05-05T01:44:02.393Z,1130.00
2023-05-05T01:45:02.420Z,1133.00
2023-05-05T01:46:02.526Z,1136.00
2023-05-05T01:47:02.509Z,1135.00
2023-05-05T01:48:02.625Z,1135.00
2023-05-05T01:49:02.614Z,1135.00
2023-05-05T01:50:02.672Z,1133.00
2023-05-05T01:51:02.685Z,1128.00
2023-05-05T01:52:02.727Z,1125.00
2023-05-05T01:53:02.794Z,1124.00
2023-05-05T01:54:02.820Z,1122.00
2023-05-05T01:55:02.896Z,1121.00
2023-05-05T01:56:02.912Z,1121.00
2023-05-05T01:57:02.971Z,1122.00
2023-05-05T01:58:03.043Z,1122.00
2023-05-05T01:59:03.054Z,1121.00
2023-05-05T02:00:03.099Z,1119.00
2023-05-05T02:01:03.224Z,1119.00
2023-05-05T02:02:03.294Z,1119.00
2023-05-05T02:03:03.381Z,1117.00
2023-05-05T02:04:03.298Z,1114.00
2023-05-05T02:05:03.367Z,1112.00
2023-05-05T02:06:03.373Z,1110.00
2023-05-05T02:07:03.446Z,1109.00
2023-05-05T02:08:03.499Z,1109.00
2023-05-05T02:09:03.525Z,1107.00
2023-05-05T02:10:03.589Z,1108.00
2023-05-05T02:11:03.638Z,1109.00
2023-05-05T02:12:03.688Z,1109.00
2023-05-05T02:13:03.782Z,1107.00
2023-05-05T02:14:03.782Z,1107.00
2023-05-05T02:15:03.865Z,1105.00
2023-05-05T02:16:03.936Z,1106.00
2023-05-05T02:17:03.941Z,1108.00
2023-05-05T02:18:04.012Z,1110.00
2023-05-05T02:19:04.029Z,1112.00
2023-05-05T02:20:04.080Z,1115.00
2023-05-05T02:21:04.131Z,1115.00
2023-05-05T02:22:04.157Z,1112.00
2023-05-05T02:23:04.633Z,1114.00
2023-05-05T02:24:04.260Z,1114.00
2023-05-05T02:25:04.335Z,1114.00
2023-05-05T02:26:04.409Z,1114.00
2023-05-05T02:27:04.468Z,1115.00
2023-05-05T02:28:04.501Z,1117.00
2023-05-05T02:29:04.526Z,1116.00
2023-05-05T02:30:04.596Z,1113.00
2023-05-05T02:31:04.719Z,1111.00
2023-05-05T02:32:04.714Z,1113.00
2023-05-05T02:33:04.795Z,1113.00
2023-05-05T02:34:04.779Z,1110.00
2023-05-05T02:35:04.858Z,1109.00
2023-05-05T02:36:04.898Z,1109.00
2023-05-05T02:37:04.979Z,1111.00
2023-05-05T02:38:05.036Z,1112.00
2023-05-05T02:39:05.016Z,1111.00
2023-05-05T02:40:05.148Z,1110.00
2023-05-05T02:41:05.145Z,1109.00
2023-05-05T02:42:05.218Z,1108.00
2023-05-05T02:43:05.289Z,1109.00
2023-05-05T02:44:05.293Z,1109.00
2023-05-05T02:45:05.344Z,1107.00
2023-05-05T02:46:05.450Z,1106.00
2023-05-05T02:47:05.430Z,1102.00
2023-05-05T02:48:05.685Z,1099.00
2023-05-05T02:49:05.541Z,1101.00
2023-05-05T02:50:05.751Z,1099.00
2023-05-05T02:51:05.649Z,1099.00
2023-05-05T02:52:05.684Z,1099.00
2023-05-05T02:53:05.762Z,1101.00
2023-05-05T02:54:05.803Z,1099.00
2023-05-05T02:55:05.848Z,1094.00
2023-05-05T02:56:05.939Z,1095.00
2023-05-05T02:57:05.979Z,1093.00
2023-05-05T02:58:06.035Z,1094.00
2023-05-05T02:59:06.062Z,1091.00
2023-05-05T03:00:06.456Z,1091.00
2023-05-05T03:01:06.208Z,1091.00
2023-05-05T03:02:06.229Z,1092.00
2023-05-05T03:03:06.391Z,1095.00
2023-05-05T03:04:06.369Z,1091.00
2023-05-05T03:05:06.400Z,1089.00
2023-05-05T03:06:06.452Z,1089.00
2023-05-05T03:07:06.504Z,1087.00
2023-05-05T03:08:06.568Z,1086.00
2023-05-05T03:09:06.617Z,1082.00
2023-05-05T03:10:06.808Z,1077.00
2023-05-05T03:11:06.735Z,1079.00
2023-05-05T03:12:06.816Z,1081.00
2023-05-05T03:13:06.906Z,1078.00
2023-05-05T03:14:06.918Z,1078.00
2023-05-05T03:15:06.974Z,1077.00
2023-05-05T03:16:07.060Z,1080.00
2023-05-05T03:17:07.103Z,1079.00
2023-05-05T03:18:07.192Z,1079.00
2023-05-05T03:19:07.216Z,1077.00
2023-05-05T03:20:07.436Z,1077.00
2023-05-05T03:21:07.292Z,1076.00
2023-05-05T03:22:07.353Z,1074.00
2023-05-05T03:23:07.419Z,1073.00
2023-05-05T03:24:07.468Z,1071.00
2023-05-05T03:25:07.542Z,1069.00
2023-05-05T03:26:07.588Z,1068.00
2023-05-05T03:27:07.629Z,1070.00
2023-05-05T03:28:07.761Z,1070.00
2023-05-05T03:29:07.764Z,1068.00
2023-05-05T03:30:08.137Z,1069.00
2023-05-05T03:31:07.872Z,1070.00
2023-05-05T03:32:07.950Z,1072.00
2023-05-05T03:33:08.046Z,1077.00
2023-05-05T03:34:08.020Z,1077.00
2023-05-05T03:35:08.109Z,1074.00
2023-05-05T03:36:08.145Z,1075.00
2023-05-05T03:37:08.191Z,1075.00
2023-05-05T03:38:08.254Z,1073.00
2023-05-05T03:39:08.338Z,1073.00
2023-05-05T03:40:08.537Z,1071.00
2023-05-05T03:41:08.466Z,1070.00
2023-05-05T03:42:08.484Z,1069.00
2023-05-05T03:43:08.571Z,1067.00
2023-05-05T03:44:08.603Z,1067.00
2023-05-05T03:45:08.644Z,1063.00
2023-05-05T03:46:08.841Z,1061.00
2023-05-05T03:47:08.767Z,1062.00
2023-05-05T03:48:08.857Z,1063.00
2023-05-05T03:49:08.886Z,1064.00
2023-05-05T03:50:09.147Z,1063.00
2023-05-05T03:51:08.995Z,1067.00
2023-05-05T03:52:09.040Z,1069.00
2023-05-05T03:53:09.153Z,1065.00
2023-05-05T03:54:09.158Z,1064.00
2023-05-05T03:55:09.216Z,1064.00
2023-05-05T03:56:09.296Z,1063.00
2023-05-05T03:57:09.360Z,1062.00
2023-05-05T03:58:09.434Z,1060.00
2023-05-05T03:59:09.468Z,1059.00
2023-05-05T04:00:09.573Z,1059.00
2023-05-05T04:01:09.568Z,1060.00
2023-05-05T04:02:09.675Z,1058.00
2023-05-05T04:03:09.840Z,1059.00
2023-05-05T04:04:09.858Z,1061.00
2023-05-05T04:05:09.826Z,1061.00
2023-05-05T04:06:09.897Z,1061.00
2023-05-05T04:07:09.939Z,1061.00
2023-05-05T04:08:10.130Z,1060.00
2023-05-05T04:09:10.060Z,1062.00
2023-05-05T04:10:10.227Z,1059.00
2023-05-05T04:11:10.217Z,1057.00
2023-05-05T04:12:10.257Z,1058.00
2023-05-05T04:13:10.408Z,1059.00
2023-05-05T04:14:10.367Z,1059.00
2023-05-05T04:15:10.431Z,1057.00
2023-05-05T04:16:10.515Z,1054.00
2023-05-05T04:17:10.578Z,1051.00
2023-05-05T04:18:10.679Z,1049.00
2023-05-05T04:19:10.925Z,1048.00
2023-05-05T04:20:10.918Z,1047.00
2023-05-05T04:21:10.757Z,1049.00
2023-05-05T04:22:10.849Z,1048.00
2023-05-05T04:23:10.932Z,1045.00
2023-05-05T04:24:10.976Z,1044.00
2023-05-05T04:25:11.020Z,1046.00
2023-05-05T04:26:11.086Z,1047.00
2023-05-05T04:27:11.137Z,1047.00
2023-05-05T04:28:11.208Z,1049.00
2023-05-05T04:29:11.237Z,1049.00
2023-05-05T04:30:11.318Z,1045.00
2023-05-05T04:31:11.381Z,1045.00
2023-05-05T04:32:11.455Z,1041.00
2023-05-05T04:33:11.521Z,1042.00
2023-05-05T04:34:11.569Z,1043.00
2023-05-05T04:35:11.636Z,1044.00
2023-05-05T04:36:11.690Z,1043.00
2023-05-05T04:37:11.767Z,1043.00
2023-05-05T04:38:11.820Z,1045.00
2023-05-05T04:39:11.887Z,1045.00
2023-05-05T04:40:11.944Z,1043.00
2023-05-05T04:41:12.004Z,1044.00
2023-05-05T04:42:12.090Z,1043.00
2023-05-05T04:43:12.149Z,1046.00
2023-05-05T04:44:12.205Z,1046.00
2023-05-05T04:45:12.249Z,1047.00
2023-05-05T04:46:12.340Z,1046.00
2023-05-05T04:47:14.587Z,1045.00
2023-05-05T04:48:12.457Z,1042.00
2023-05-05T04:49:12.528Z,1042.00
2023-05-05T04:50:12.580Z,1039.00
2023-05-05T04:51:12.626Z,1038.00
2023-05-05T04:52:12.696Z,1034.00
2023-05-05T04:53:12.824Z,1034.00
2023-05-05T04:54:12.862Z,1033.00
2023-05-05T04:55:12.903Z,1031.00
2023-05-05T04:56:12.947Z,1033.00
2023-05-05T04:57:13.036Z,1034.00
2023-05-05T04:58:13.065Z,1035.00
2023-05-05T04:59:13.171Z,1035.00
2023-05-05T05:00:13.207Z,1035.00
2023-05-05T05:01:13.270Z,1035.00
2023-05-05T05:02:13.467Z,1037.00
2023-05-05T05:03:13.495Z,1040.00
2023-05-05T05:04:13.445Z,1040.00
2023-05-05T05:05:13.515Z,1039.00
2023-05-05T05:06:13.592Z,1040.00
2023-05-05T05:07:13.632Z,1036.00
2023-05-05T05:08:13.698Z,1039.00
2023-05-05T05:09:13.783Z,1040.00
2023-05-05T05:10:13.847Z,1039.00
2023-05-05T05:11:13.912Z,1037.00
2023-05-05T05:12:13.965Z,1038.00
2023-05-05T05:13:14.038Z,1036.00
2023-05-05T05:14:14.087Z,1036.00
2023-05-05T05:15:14.151Z,1034.00
2023-05-05T05:16:14.201Z,1032.00
2023-05-05T05:17:14.294Z,1030.00
2023-05-05T05:18:14.360Z,1030.00
2023-05-05T05:19:14.400Z,1026.00
2023-05-05T05:20:14.439Z,1024.00
2023-05-05T05:21:14.531Z,1022.00
2023-05-05T05:22:14.584Z,1022.00
2023-05-05T05:23:14.668Z,1023.00
2023-05-05T05:24:14.723Z,1025.00
2023-05-05T05:25:14.787Z,1028.00
2023-05-05T05:26:14.817Z,1029.00
2023-05-05T05:27:14.913Z,1028.00
2023-05-05T05:28:14.955Z,1028.00
2023-05-05T05:29:15.115Z,1029.00
2023-05-05T05:30:15.096Z,1027.00
2023-05-05T05:31:15.141Z,1026.00
2023-05-05T05:32:15.218Z,1026.00
2023-05-05T05:33:15.256Z,1023.00
2023-05-05T05:34:15.312Z,1018.00
2023-05-05T05:35:15.396Z,1015.00
2023-05-05T05:36:15.436Z,1017.00
2023-05-05T05:37:15.508Z,1016.00
2023-05-05T05:38:15.691Z,1018.00
2023-05-05T05:39:15.632Z,1018.00
2023-05-05T05:40:15.669Z,1018.00
2023-05-05T05:41:15.732Z,1020.00
2023-05-05T05:42:15.803Z,1018.00
2023-05-05T05:43:15.874Z,1019.00
2023-05-05T05:44:15.907Z,1018.00
2023-05-05T05:45:15.988Z,1018.00
2023-05-05T05:46:16.094Z,1018.00
2023-05-05T05:47:16.048Z,1018.00
2023-05-05T05:48:16.145Z,1026.00
2023-05-05T05:49:16.188Z,1031.00
2023-05-05T05:50:16.249Z,1031.00
2023-05-05T05:51:16.298Z,1100.00
2023-05-05T05:52:16.359Z,1126.00
2023-05-05T05:53:16.401Z,1154.00
2023-05-05T05:54:16.486Z,1218.00
2023-05-05T05:55:16.548Z,1207.00
2023-05-05T05:56:16.558Z,1205.00
2023-05-05T05:57:16.614Z,1221.00
2023-05-05T05:58:16.735Z,1344.00
2023-05-05T05:59:16.667Z,1495.00
2023-05-05T06:00:16.748Z,1655.00
2023-05-05T06:01:16.666Z,1678.00
2023-05-05T06:02:16.802Z,1495.00
2023-05-05T06:03:17.379Z,1309.00
2023-05-05T06:04:16.832Z,1309.00
2023-05-05T06:05:16.839Z,1287.00
2023-05-05T06:06:16.933Z,1277.00
2023-05-05T06:07:16.945Z,1267.00
2023-05-05T06:08:17.185Z,1268.00
2023-05-05T06:09:17.036Z,1257.00
2023-05-05T06:10:27.172Z,1209.00
2023-05-05T06:11:18.081Z,1117.00
2023-05-05T06:12:17.061Z,1126.00
2023-05-05T06:13:17.088Z,1163.00
2023-05-05T06:14:18.149Z,1208.00
2023-05-05T06:15:17.047Z,1272.00
2023-05-05T06:16:17.193Z,1285.00
2023-05-05T06:17:17.109Z,1328.00
2023-05-05T06:18:17.221Z,1348.00
2023-05-05T06:19:17.200Z,1357.00
2023-05-05T06:20:17.254Z,1369.00
2023-05-05T06:21:17.251Z,1380.00
2023-05-05T06:22:17.249Z,1386.00
2023-05-05T06:23:17.703Z,1385.00
2023-05-05T06:24:17.296Z,1393.00
2023-05-05T06:25:17.356Z,1399.00
2023-05-05T06:26:17.370Z,1409.00
2023-05-05T06:27:17.402Z,1415.00
2023-05-05T06:28:17.435Z,1420.00
2023-05-05T06:29:17.445Z,1423.00
2023-05-05T06:30:17.457Z,1422.00
2023-05-05T06:31:17.512Z,1432.00
2023-05-05T06:32:17.501Z,1446.00
2023-05-05T06:33:17.750Z,1458.00
2023-05-05T06:34:17.547Z,1466.00
2023-05-05T06:35:17.547Z,1477.00
2023-05-05T06:36:17.596Z,1481.00
2023-05-05T06:37:17.609Z,1482.00
2023-05-05T06:38:17.586Z,1487.00
2023-05-05T06:39:17.731Z,1487.00
2023-05-05T06:40:17.594Z,1489.00
2023-05-05T06:41:17.603Z,1488.00
2023-05-05T06:42:17.607Z,1487.00
2023-05-05T06:43:17.617Z,1487.00
2023-05-05T06:44:17.618Z,1497.00
2023-05-05T06:45:17.637Z,1505.00
2023-05-05T06:46:17.651Z,1507.00
2023-05-05T06:47:17.646Z,1512.00
2023-05-05T06:48:17.586Z,1518.00
2023-05-05T06:49:17.690Z,1507.00
2023-05-05T06:50:17.582Z,1502.00
2023-05-05T06:51:17.636Z,1507.00
2023-05-05T06:52:17.627Z,1520.00
2023-05-05T06:53:17.609Z,1542.00
2023-05-05T06:54:17.633Z,1547.00
2023-05-05T06:55:17.569Z,1546.00
2023-05-05T06:56:17.577Z,1539.00
2023-05-05T06:57:17.580Z,1534.00
2023-05-05T06:58:17.594Z,1530.00
2023-05-05T06:59:17.601Z,1525.00
2023-05-05T07:00:17.600Z,1519.00
2023-05-05T07:01:17.586Z,1519.00
2023-05-05T07:02:17.587Z,1515.00
2023-05-05T07:03:17.648Z,1515.00
2023-05-05T07:04:17.665Z,1513.00
2023-05-05T07:05:17.707Z,1512.00
2023-05-05T07:06:17.676Z,1511.00
2023-05-05T07:07:17.652Z,1513.00
2023-05-05T07:08:17.703Z,1511.00
2023-05-05T07:09:17.731Z,1514.00
2023-05-05T07:10:17.739Z,1513.00
2023-05-05T07:11:17.762Z,1515.00
2023-05-05T07:12:17.747Z,1516.00
2023-05-05T07:13:17.840Z,1511.00
2023-05-05T07:14:17.836Z,1511.00
2023-05-05T07:15:27.597Z,1509.00
2023-05-05T07:16:18.837Z,1508.00
2023-05-05T07:17:17.816Z,1506.00
2023-05-05T07:18:17.834Z,1505.00
2023-05-05T07:19:17.787Z,1504.00
2023-05-05T07:20:17.777Z,1504.00
2023-05-05T07:21:17.850Z,1502.00
2023-05-05T07:22:17.784Z,1502.00
2023-05-05T07:23:17.784Z,1498.00
2023-05-05T07:24:17.773Z,1496.00
2023-05-05T07:25:17.760Z,1495.00
2023-05-05T07:26:17.758Z,1492.00
2023-05-05T07:27:17.754Z,1491.00
2023-05-05T07:28:17.721Z,1489.00
2023-05-05T07:29:17.730Z,1489.00
2023-05-05T07:30:19.033Z,1486.00
2023-05-05T07:31:17.726Z,1486.00
2023-05-05T07:32:17.813Z,1486.00
2023-05-05T07:33:17.790Z,1487.00
2023-05-05T07:34:17.866Z,1489.00
2023-05-05T07:35:17.873Z,1491.00
2023-05-05T07:36:17.918Z,1492.00
2023-05-05T07:37:18.075Z,1491.00
2023-05-05T07:38:18.002Z,1489.00
2023-05-05T07:39:22.207Z,1488.00
2023-05-05T07:40:18.020Z,1484.00
2023-05-05T07:41:18.026Z,1482.00
2023-05-05T07:42:18.032Z,1481.00
2023-05-05T07:43:18.032Z,1477.00
2023-05-05T07:44:18.045Z,1474.00
2023-05-05T07:45:17.986Z,1476.00
2023-05-05T07:46:18.011Z,1489.00
2023-05-05T07:47:18.007Z,1572.00
2023-05-05T07:48:17.961Z,1614.00
2023-05-05T07:49:17.983Z,1656.00
2023-05-05T07:50:17.945Z,1743.00
2023-05-05T07:51:18.008Z,1789.00
2023-05-05T07:52:17.956Z,1810.00
2023-05-05T07:53:18.007Z,1817.00
2023-05-05T07:54:17.916Z,1815.00
2023-05-05T07:55:17.933Z,1806.00
2023-05-05T07:56:18.933Z,1671.00
2023-05-05T07:57:17.872Z,1584.00
2023-05-05T07:58:17.883Z,1545.00
2023-05-05T07:59:17.898Z,1523.00
2023-05-05T08:00:17.899Z,1505.00
2023-05-05T08:01:17.866Z,1472.00
2023-05-05T08:02:17.860Z,1450.00
2023-05-05T08:03:17.930Z,1444.00
2023-05-05T08:04:18.330Z,1446.00
2023-05-05T08:05:17.915Z,1449.00
2023-05-05T08:06:18.006Z,1440.00
2023-05-05T08:07:18.022Z,1434.00
2023-05-05T08:08:17.999Z,1431.00
2023-05-05T08:09:18.109Z,1422.00
2023-05-05T08:10:18.066Z,1412.00
2023-05-05T08:11:18.131Z,1406.00
2023-05-05T08:12:18.131Z,1398.00
2023-05-05T08:13:18.236Z,1381.00
2023-05-05T08:14:18.258Z,1371.00
2023-05-05T08:15:18.274Z,1366.00
2023-05-05T08:16:18.320Z,1360.00
2023-05-05T08:17:18.378Z,1354.00
2023-05-05T08:18:18.379Z,1349.00
2023-05-05T08:19:28.252Z,1347.00
2023-05-05T08:20:19.420Z,1345.00
2023-05-05T08:21:18.450Z,1345.00
2023-05-05T08:22:18.389Z,1345.00
2023-05-05T08:23:18.426Z,1342.00
2023-05-05T08:24:18.748Z,1339.00
2023-05-05T08:25:18.499Z,1338.00
2023-05-05T08:26:18.368Z,1335.00
2023-05-05T08:27:18.383Z,1332.00
2023-05-05T08:28:18.395Z,1327.00
2023-05-05T08:29:18.770Z,1325.00
2023-05-05T08:30:18.432Z,1321.00
2023-05-05T08:31:18.608Z,1324.00
2023-05-05T08:32:18.555Z,1322.00
2023-05-05T08:33:18.607Z,1319.00
2023-05-05T08:34:18.757Z,1317.00
2023-05-05T08:35:18.721Z,1313.00
2023-05-05T08:36:18.790Z,1313.00
2023-05-05T08:37:18.866Z,1316.00
2023-05-05T08:38:18.912Z,1315.00
2023-05-05T08:39:19.010Z,1312.00
2023-05-05T08:40:19.015Z,1306.00
2023-05-05T08:41:19.215Z,1295.00
2023-05-05T08:42:29.290Z,1282.00
2023-05-05T08:43:20.127Z,1292.00
2023-05-05T08:44:19.136Z,1313.00
2023-05-05T08:45:19.123Z,1373.00
2023-05-05T08:46:19.189Z,1406.00
2023-05-05T08:47:19.158Z,1458.00
2023-05-05T08:48:19.080Z,1513.00
2023-05-05T08:49:19.127Z,1567.00
2023-05-05T08:50:19.089Z,1624.00
2023-05-05T08:51:19.091Z,1653.00
2023-05-05T08:52:19.109Z,1659.00
2023-05-05T08:53:19.118Z,1668.00
2023-05-05T08:54:19.292Z,1702.00
2023-05-05T08:55:19.063Z,1721.00
2023-05-05T08:56:19.090Z,1731.00
2023-05-05T08:57:19.186Z,1735.00
2023-05-05T08:58:19.170Z,1738.00
2023-05-05T08:59:19.185Z,1731.00
2023-05-05T09:00:19.187Z,1720.00
2023-05-05T09:01:19.220Z,1709.00
2023-05-05T09:02:19.237Z,1703.00
2023-05-05T09:03:19.250Z,1700.00
2023-05-05T09:04:19.782Z,1694.00
2023-05-05T09:05:19.300Z,1684.00
2023-05-05T09:06:19.330Z,1681.00
2023-05-05T09:07:19.337Z,1683.00
2023-05-05T09:08:19.339Z,1670.00
2023-05-05T09:09:19.403Z,1640.00
2023-05-05T09:10:19.433Z,1622.00
2023-05-05T09:11:19.437Z,1629.00
2023-05-05T09:12:19.432Z,1644.00
2023-05-05T09:13:19.577Z,1645.00
2023-05-05T09:14:19.487Z,1636.00
2023-05-05T09:15:19.487Z,1628.00
2023-05-05T09:16:19.646Z,1630.00
2023-05-05T09:17:19.530Z,1632.00
2023-05-05T09:18:19.628Z,1634.00
2023-05-05T09:19:19.791Z,1640.00
2023-05-05T09:20:19.609Z,1644.00
2023-05-05T09:21:19.645Z,1647.00
2023-05-05T09:22:19.658Z,1648.00
2023-05-05T09:23:19.695Z,1647.00
2023-05-05T09:24:19.731Z,1646.00
2023-05-05T09:25:19.716Z,1645.00
2023-05-05T09:26:19.739Z,1649.00
2023-05-05T09:27:19.752Z,1648.00
2023-05-05T09:28:19.762Z,1641.00
2023-05-05T09:29:19.863Z,1643.00
2023-05-05T09:30:19.837Z,1641.00
2023-05-05T09:31:19.888Z,1643.00
2023-05-05T09:32:19.842Z,1641.00
2023-05-05T09:33:19.906Z,1640.00
2023-05-05T09:34:19.907Z,1639.00
2023-05-05T09:35:19.926Z,1644.00
2023-05-05T09:36:19.953Z,1647.00
2023-05-05T09:37:19.987Z,1646.00
2023-05-05T09:38:20.951Z,1647.00
2023-05-05T09:39:20.351Z,1648.00
2023-05-05T09:40:20.112Z,1643.00
2023-05-05T09:41:19.912Z,1643.00
2023-05-05T09:42:19.909Z,1643.00
2023-05-05T09:43:19.952Z,1644.00
2023-05-05T09:44:19.944Z,1642.00
2023-05-05T09:45:20.101Z,1638.00
2023-05-05T09:46:19.948Z,1636.00
2023-05-05T09:47:29.476Z,1635.00
2023-05-05T09:48:20.945Z,1636.00
2023-05-05T09:49:19.875Z,1644.00
2023-05-05T09:50:19.899Z,1740.00
2023-05-05T09:51:19.890Z,1795.00
2023-05-05T09:52:19.872Z,1906.00
2023-05-05T09:53:19.848Z,1934.00
2023-05-05T09:54:20.274Z,1958.00
2023-05-05T09:55:19.847Z,2015.00
2023-05-05T09:56:19.832Z,2034.00
2023-05-05T09:57:19.842Z,2061.00
2023-05-05T09:58:19.982Z,2096.00
2023-05-05T09:59:20.291Z,2116.00
2023-05-05T10:00:19.893Z,2167.00
2023-05-05T10:01:19.947Z,2176.00
2023-05-05T10:02:19.781Z,2185.00
2023-05-05T10:03:19.799Z,2186.00
2023-05-05T10:04:19.856Z,2193.00
2023-05-05T10:05:20.036Z,2209.00
2023-05-05T10:06:19.954Z,2211.00
2023-05-05T10:07:19.987Z,2217.00
2023-05-05T10:08:20.034Z,2211.00
2023-05-05T10:09:20.076Z,1980.00
2023-05-05T10:10:20.091Z,1927.00
2023-05-05T10:11:20.134Z,1916.00
2023-05-05T10:12:20.141Z,1844.00
2023-05-05T10:13:20.281Z,1818.00
2023-05-05T10:14:20.217Z,1685.00
2023-05-05T10:15:20.183Z,1655.00
2023-05-05T10:16:20.267Z,1520.00
2023-05-05T10:17:20.306Z,1484.00
2023-05-05T10:18:20.281Z,1328.00
2023-05-05T10:19:20.292Z,1323.00
2023-05-05T10:20:20.283Z,1313.00
2023-05-05T10:21:20.299Z,1396.00
2023-05-05T10:22:20.305Z,1471.00
2023-05-05T10:23:20.326Z,1491.00
2023-05-05T10:24:20.340Z,1397.00
2023-05-05T10:25:20.325Z,1310.00
2023-05-05T10:26:20.366Z,1342.00
2023-05-05T10:27:20.361Z,1348.00
2023-05-05T10:28:20.362Z,1240.00
2023-05-05T10:29:20.361Z,1159.00
2023-05-05T10:30:20.355Z,1191.00
2023-05-05T10:31:26.335Z,1193.00
2023-05-05T10:32:47.172Z,1188.00
2023-05-05T10:34:20.402Z,1161.00
2023-05-05T10:35:20.325Z,1161.00
2023-05-05T10:36:20.356Z,1151.00
2023-05-05T10:37:20.344Z,1052.00
2023-05-05T10:38:20.339Z,1054.00
2023-05-05T10:39:20.824Z,1052.00
2023-05-05T10:40:20.303Z,1058.00
2023-05-05T10:41:20.271Z,1138.00
2023-05-05T10:42:20.344Z,1174.00
2023-05-05T10:43:20.272Z,1076.00
2023-05-05T10:44:20.255Z,1079.00
2023-05-05T10:45:20.374Z,1033.00
2023-05-05T10:46:20.342Z,907.00
2023-05-05T10:47:20.267Z,959.00
2023-05-05T10:48:20.294Z,962.00
2023-05-05T10:49:20.262Z,968.00
2023-05-05T10:50:20.325Z,873.00
2023-05-05T10:51:31.066Z,883.00
2023-05-05T10:52:21.219Z,911.00
2023-05-05T10:53:20.202Z,947.00
2023-05-05T10:54:20.492Z,961.00
2023-05-05T10:55:20.318Z,969.00
2023-05-05T10:56:20.169Z,978.00
2023-05-05T10:57:20.214Z,983.00
2023-05-05T10:58:20.166Z,989.00
2023-05-05T10:59:20.171Z,993.00
2023-05-05T11:00:20.295Z,1003.00
2023-05-05T11:01:20.183Z,1011.00
2023-05-05T11:02:20.147Z,1020.00
2023-05-05T11:03:20.250Z,1028.00
2023-05-05T11:04:20.217Z,1034.00
2023-05-05T11:05:20.462Z,1036.00
2023-05-05T11:06:20.141Z,1042.00
2023-05-05T11:07:20.149Z,1044.00
2023-05-05T11:08:20.140Z,1044.00
2023-05-05T11:09:20.143Z,1044.00
2023-05-05T11:10:20.525Z,1045.00
2023-05-05T11:11:20.124Z,1046.00
2023-05-05T11:12:20.093Z,1050.00
2023-05-05T11:13:20.148Z,1052.00
2023-05-05T11:14:20.143Z,1052.00
2023-05-05T11:15:20.329Z,1053.00
2023-05-05T11:16:20.206Z,1051.00
2023-05-05T11:17:20.207Z,1050.00
2023-05-05T11:18:20.257Z,1051.00
2023-05-05T11:19:20.303Z,1051.00
2023-05-05T11:20:20.806Z,1052.00
2023-05-05T11:21:20.480Z,1053.00
2023-05-05T11:22:20.514Z,1055.00
2023-05-05T11:23:20.549Z,1055.00
2023-05-05T11:24:20.580Z,1054.00
2023-05-05T11:25:20.860Z,1055.00
2023-05-05T11:26:20.708Z,1058.00
2023-05-05T11:27:20.750Z,1062.00
2023-05-05T11:28:20.812Z,1059.00
2023-05-05T11:29:20.887Z,1059.00
2023-05-05T11:30:20.906Z,1059.00
2023-05-05T11:31:21.046Z,1060.00
2023-05-05T11:32:21.057Z,1061.00
2023-05-05T11:33:21.090Z,1058.00
2023-05-05T11:34:21.172Z,1059.00
2023-05-05T11:35:21.333Z,1057.00
2023-05-05T11:36:21.328Z,1055.00
2023-05-05T11:37:21.486Z,1057.00
2023-05-05T11:38:21.453Z,1059.00
2023-05-05T11:39:21.469Z,1059.00
2023-05-05T11:40:21.554Z,1060.00
2023-05-05T11:41:21.631Z,1059.00
2023-05-05T11:42:21.656Z,1056.00
2023-05-05T11:43:21.727Z,1053.00
2023-05-05T11:44:21.804Z,1053.00
2023-05-05T11:45:22.340Z,1053.00
2023-05-05T11:46:21.951Z,1052.00
2023-05-05T11:47:22.005Z,1051.00
2023-05-05T11:48:22.038Z,1052.00
2023-05-05T11:49:22.085Z,1050.00
2023-05-05T11:50:22.181Z,1051.00
2023-05-05T11:51:22.218Z,1050.00
2023-05-05T11:52:22.254Z,1048.00
2023-05-05T11:53:22.352Z,1047.00
2023-05-05T11:54:22.294Z,1049.00
2023-05-05T11:55:22.287Z,1045.00
2023-05-05T11:56:22.371Z,1045.00
2023-05-05T11:57:22.342Z,1045.00
2023-05-05T11:58:22.390Z,1046.00
2023-05-05T11:59:22.386Z,1048.00
2023-05-05T12:00:22.405Z,1049.00
2023-05-05T12:01:22.364Z,1049.00
2023-05-05T12:02:22.423Z,1049.00
2023-05-05T12:03:22.500Z,1049.00
2023-05-05T12:04:22.474Z,1051.00
2023-05-05T12:05:22.862Z,1051.00
2023-05-05T12:06:22.445Z,1049.00
2023-05-05T12:07:22.479Z,1049.00